sensor_id;sensor_type;location;lat;lon;timestamp;temperature;humidity
13848;DHT22;6994;49.752;6.094;2022-09-03T00:01:00;18.50;99.10
13848;DHT22;6994;49.752;6.094;2022-09-03T00:03:37;18.60;99.90
13848;DHT22;6994;49.752;6.094;2022-09-03T00:06:13;18.50;99.70
13848;DHT22;6994;49.752;6.094;2022-09-03T00:08:51;18.40;99.70
13848;DHT22;6994;49.752;6.094;2022-09-03T00:11:21;18.20;99.80
13848;DHT22;6994;49.752;6.094;2022-09-03T00:14:04;18.10;99.90
13848;DHT22;6994;49.752;6.094;2022-09-03T00:16:27;18.00;99.90
13848;DHT22;6994;49.752;6.094;2022-09-03T00:18:55;17.90;99.90
13848;DHT22;6994;49.752;6.094;2022-09-03T00:21:26;17.80;99.90
13848;DHT22;6994;49.752;6.094;2022-09-03T00:23:48;17.80;99.90
13848;DHT22;6994;49.752;6.094;2022-09-03T00:26:17;17.90;99.90
13848;DHT22;6994;49.752;6.094;2022-09-03T00:29:00;17.90;99.90
13848;DHT22;6994;49.752;6.094;2022-09-03T00:31:22;17.90;99.90
13848;DHT22;6994;49.752;6.094;2022-09-03T00:33:49;17.80;99.90
13848;DHT22;6994;49.752;6.094;2022-09-03T00:36:19;17.70;99.90
13848;DHT22;6994;49.752;6.094;2022-09-03T00:38:46;17.60;99.90
13848;DHT22;6994;49.752;6.094;2022-09-03T00:41:18;17.70;99.90
13848;DHT22;6994;49.752;6.094;2022-09-03T00:46:42;17.60;99.90
13848;DHT22;6994;49.752;6.094;2022-09-03T00:57:53;17.10;99.90
13848;DHT22;6994;49.752;6.094;2022-09-03T01:00:14;17.00;99.90
13848;DHT22;6994;49.752;6.094;2022-09-03T01:03:00;17.00;99.90
13848;DHT22;6994;49.752;6.094;2022-09-03T01:08:16;17.00;99.90
13848;DHT22;6994;49.752;6.094;2022-09-03T01:10:49;17.00;99.90
13848;DHT22;6994;49.752;6.094;2022-09-03T01:13:23;17.00;99.90
13848;DHT22;6994;49.752;6.094;2022-09-03T01:16:16;17.00;99.90
13848;DHT22;6994;49.752;6.094;2022-09-03T01:18:50;17.00;99.90
13848;DHT22;6994;49.752;6.094;2022-09-03T01:29:22;17.40;99.90
13848;DHT22;6994;49.752;6.094;2022-09-03T01:37:14;17.60;99.90
13848;DHT22;6994;49.752;6.094;2022-09-03T01:42:34;17.40;99.90
13848;DHT22;6994;49.752;6.094;2022-09-03T01:47:46;17.20;99.90
13848;DHT22;6994;49.752;6.094;2022-09-03T01:50:14;17.20;99.90
13848;DHT22;6994;49.752;6.094;2022-09-03T01:52:43;17.10;99.90
13848;DHT22;6994;49.752;6.094;2022-09-03T01:58:05;17.10;99.90
13848;DHT22;6994;49.752;6.094;2022-09-03T02:00:30;17.10;99.90
13848;DHT22;6994;49.752;6.094;2022-09-03T02:02:59;17.10;99.90
13848;DHT22;6994;49.752;6.094;2022-09-03T02:05:25;17.10;99.90
13848;DHT22;6994;49.752;6.094;2022-09-03T02:08:04;17.10;99.90
13848;DHT22;6994;49.752;6.094;2022-09-03T02:13:08;17.20;99.90
13848;DHT22;6994;49.752;6.094;2022-09-03T02:15:34;17.30;99.90
13848;DHT22;6994;49.752;6.094;2022-09-03T02:18:01;17.20;99.90
13848;DHT22;6994;49.752;6.094;2022-09-03T02:20:28;17.10;99.90
13848;DHT22;6994;49.752;6.094;2022-09-03T02:22:55;17.10;99.90
13848;DHT22;6994;49.752;6.094;2022-09-03T02:25:23;17.20;99.90
13848;DHT22;6994;49.752;6.094;2022-09-03T02:27:49;17.20;99.90
13848;DHT22;6994;49.752;6.094;2022-09-03T02:30:17;17.20;99.90
13848;DHT22;6994;49.752;6.094;2022-09-03T02:32:45;17.10;99.90
13848;DHT22;6994;49.752;6.094;2022-09-03T02:35:13;17.10;99.90
13848;DHT22;6994;49.752;6.094;2022-09-03T02:37:41;17.10;99.90
13848;DHT22;6994;49.752;6.094;2022-09-03T02:40:09;17.10;99.90
13848;DHT22;6994;49.752;6.094;2022-09-03T02:42:37;17.10;99.90
13848;DHT22;6994;49.752;6.094;2022-09-03T02:45:26;17.00;99.90
13848;DHT22;6994;49.752;6.094;2022-09-03T02:47:54;17.10;99.90
13848;DHT22;6994;49.752;6.094;2022-09-03T02:50:20;17.10;99.90
13848;DHT22;6994;49.752;6.094;2022-09-03T02:52:48;17.00;99.90
13848;DHT22;6994;49.752;6.094;2022-09-03T02:55:16;16.90;99.90
13848;DHT22;6994;49.752;6.094;2022-09-03T02:57:44;16.90;99.90
13848;DHT22;6994;49.752;6.094;2022-09-03T03:00:12;16.90;99.90
13848;DHT22;6994;49.752;6.094;2022-09-03T03:02:39;16.90;99.90
13848;DHT22;6994;49.752;6.094;2022-09-03T03:05:06;16.90;99.90
13848;DHT22;6994;49.752;6.094;2022-09-03T03:07:35;16.90;99.90
13848;DHT22;6994;49.752;6.094;2022-09-03T03:10:01;17.10;99.90
13848;DHT22;6994;49.752;6.094;2022-09-03T03:12:29;17.00;99.90
13848;DHT22;6994;49.752;6.094;2022-09-03T03:14:57;16.90;99.90
13848;DHT22;6994;49.752;6.094;2022-09-03T03:17:24;16.90;99.90
13848;DHT22;6994;49.752;6.094;2022-09-03T03:19:51;16.80;99.90
13848;DHT22;6994;49.752;6.094;2022-09-03T03:22:19;16.70;99.90
13848;DHT22;6994;49.752;6.094;2022-09-03T03:24:46;16.60;99.90
13848;DHT22;6994;49.752;6.094;2022-09-03T03:27:13;16.50;99.90
13848;DHT22;6994;49.752;6.094;2022-09-03T03:29:40;16.40;99.90
13848;DHT22;6994;49.752;6.094;2022-09-03T03:32:07;16.30;99.90
13848;DHT22;6994;49.752;6.094;2022-09-03T03:34:35;16.20;99.90
13848;DHT22;6994;49.752;6.094;2022-09-03T03:37:02;16.20;99.90
13848;DHT22;6994;49.752;6.094;2022-09-03T03:39:30;16.10;99.90
13848;DHT22;6994;49.752;6.094;2022-09-03T03:41:58;16.10;99.90
13848;DHT22;6994;49.752;6.094;2022-09-03T03:44:26;16.00;99.90
13848;DHT22;6994;49.752;6.094;2022-09-03T03:46:54;16.00;99.90
13848;DHT22;6994;49.752;6.094;2022-09-03T03:49:21;16.00;99.90
13848;DHT22;6994;49.752;6.094;2022-09-03T03:51:48;15.90;99.90
13848;DHT22;6994;49.752;6.094;2022-09-03T03:54:15;15.90;99.90
13848;DHT22;6994;49.752;6.094;2022-09-03T03:56:43;15.90;99.90
13848;DHT22;6994;49.752;6.094;2022-09-03T03:59:11;15.80;99.90
13848;DHT22;6994;49.752;6.094;2022-09-03T04:01:38;15.80;99.90
13848;DHT22;6994;49.752;6.094;2022-09-03T04:04:05;15.80;99.90
13848;DHT22;6994;49.752;6.094;2022-09-03T04:06:32;16.00;99.90
13848;DHT22;6994;49.752;6.094;2022-09-03T04:08:59;16.00;99.90
13848;DHT22;6994;49.752;6.094;2022-09-03T04:11:27;16.20;99.90
13848;DHT22;6994;49.752;6.094;2022-09-03T04:13:54;16.20;99.90
13848;DHT22;6994;49.752;6.094;2022-09-03T04:16:23;16.10;99.90
13848;DHT22;6994;49.752;6.094;2022-09-03T04:18:50;16.10;99.90
13848;DHT22;6994;49.752;6.094;2022-09-03T04:21:24;16.00;99.90
13848;DHT22;6994;49.752;6.094;2022-09-03T04:23:48;16.00;99.90
13848;DHT22;6994;49.752;6.094;2022-09-03T04:26:17;16.00;99.90
13848;DHT22;6994;49.752;6.094;2022-09-03T04:28:43;15.90;99.90
13848;DHT22;6994;49.752;6.094;2022-09-03T04:31:12;15.90;99.90
13848;DHT22;6994;49.752;6.094;2022-09-03T04:33:39;15.90;99.90
13848;DHT22;6994;49.752;6.094;2022-09-03T04:36:10;15.90;99.90
13848;DHT22;6994;49.752;6.094;2022-09-03T04:38:37;15.90;99.90
13848;DHT22;6994;49.752;6.094;2022-09-03T04:41:04;15.90;99.90
13848;DHT22;6994;49.752;6.094;2022-09-03T04:43:31;15.90;99.90
13848;DHT22;6994;49.752;6.094;2022-09-03T04:45:58;15.90;99.90
13848;DHT22;6994;49.752;6.094;2022-09-03T04:48:25;15.90;99.90
13848;DHT22;6994;49.752;6.094;2022-09-03T04:50:53;16.00;99.90
13848;DHT22;6994;49.752;6.094;2022-09-03T04:53:21;16.00;99.90
13848;DHT22;6994;49.752;6.094;2022-09-03T04:55:49;16.10;99.90
13848;DHT22;6994;49.752;6.094;2022-09-03T04:58:17;16.10;99.90
13848;DHT22;6994;49.752;6.094;2022-09-03T05:00:45;16.10;99.90
13848;DHT22;6994;49.752;6.094;2022-09-03T05:03:13;16.20;99.90
13848;DHT22;6994;49.752;6.094;2022-09-03T05:05:41;16.10;99.90
13848;DHT22;6994;49.752;6.094;2022-09-03T05:08:08;16.10;99.90
13848;DHT22;6994;49.752;6.094;2022-09-03T05:10:35;16.20;99.90
13848;DHT22;6994;49.752;6.094;2022-09-03T05:13:03;16.10;99.90
13848;DHT22;6994;49.752;6.094;2022-09-03T05:15:30;16.40;99.90
13848;DHT22;6994;49.752;6.094;2022-09-03T05:18:00;16.50;99.90
13848;DHT22;6994;49.752;6.094;2022-09-03T05:20:30;16.50;99.90
13848;DHT22;6994;49.752;6.094;2022-09-03T05:23:01;16.50;99.90
13848;DHT22;6994;49.752;6.094;2022-09-03T05:25:28;16.40;99.90
13848;DHT22;6994;49.752;6.094;2022-09-03T05:27:56;16.40;99.90
13848;DHT22;6994;49.752;6.094;2022-09-03T05:30:24;16.40;99.90
13848;DHT22;6994;49.752;6.094;2022-09-03T05:32:52;16.50;99.90
13848;DHT22;6994;49.752;6.094;2022-09-03T05:35:19;16.50;99.90
13848;DHT22;6994;49.752;6.094;2022-09-03T05:37:47;16.50;99.90
13848;DHT22;6994;49.752;6.094;2022-09-03T05:40:15;16.60;99.90
13848;DHT22;6994;49.752;6.094;2022-09-03T05:42:43;16.60;99.90
13848;DHT22;6994;49.752;6.094;2022-09-03T05:45:11;16.70;99.90
13848;DHT22;6994;49.752;6.094;2022-09-03T05:47:39;16.70;99.90
13848;DHT22;6994;49.752;6.094;2022-09-03T05:50:08;16.80;99.90
13848;DHT22;6994;49.752;6.094;2022-09-03T05:52:35;16.80;99.90
13848;DHT22;6994;49.752;6.094;2022-09-03T05:55:03;16.90;99.90
13848;DHT22;6994;49.752;6.094;2022-09-03T05:57:31;16.90;99.90
13848;DHT22;6994;49.752;6.094;2022-09-03T05:59:58;16.90;99.90
13848;DHT22;6994;49.752;6.094;2022-09-03T06:02:25;16.90;99.90
13848;DHT22;6994;49.752;6.094;2022-09-03T06:04:52;17.20;99.90
13848;DHT22;6994;49.752;6.094;2022-09-03T06:07:19;17.30;99.90
13848;DHT22;6994;49.752;6.094;2022-09-03T06:09:47;17.40;99.90
13848;DHT22;6994;49.752;6.094;2022-09-03T06:12:14;17.40;99.90
13848;DHT22;6994;49.752;6.094;2022-09-03T06:14:41;17.40;99.90
13848;DHT22;6994;49.752;6.094;2022-09-03T06:17:08;17.50;99.90
13848;DHT22;6994;49.752;6.094;2022-09-03T06:19:35;17.50;99.90
13848;DHT22;6994;49.752;6.094;2022-09-03T06:22:03;17.60;99.90
13848;DHT22;6994;49.752;6.094;2022-09-03T06:24:31;17.70;99.90
13848;DHT22;6994;49.752;6.094;2022-09-03T06:26:59;17.80;99.90
13848;DHT22;6994;49.752;6.094;2022-09-03T06:29:27;17.80;99.90
13848;DHT22;6994;49.752;6.094;2022-09-03T06:31:55;17.90;99.90
13848;DHT22;6994;49.752;6.094;2022-09-03T06:34:23;18.00;99.90
13848;DHT22;6994;49.752;6.094;2022-09-03T06:36:50;18.00;99.90
13848;DHT22;6994;49.752;6.094;2022-09-03T06:39:18;18.10;99.90
13848;DHT22;6994;49.752;6.094;2022-09-03T06:41:45;18.20;99.90
13848;DHT22;6994;49.752;6.094;2022-09-03T06:44:12;18.30;99.90
13848;DHT22;6994;49.752;6.094;2022-09-03T06:46:39;18.30;99.90
13848;DHT22;6994;49.752;6.094;2022-09-03T06:49:07;18.40;99.90
13848;DHT22;6994;49.752;6.094;2022-09-03T06:51:35;18.50;99.90
13848;DHT22;6994;49.752;6.094;2022-09-03T06:54:05;18.60;99.90
13848;DHT22;6994;49.752;6.094;2022-09-03T06:56:28;18.70;99.90
13848;DHT22;6994;49.752;6.094;2022-09-03T06:58:56;18.80;99.90
13848;DHT22;6994;49.752;6.094;2022-09-03T07:01:25;18.90;99.90
13848;DHT22;6994;49.752;6.094;2022-09-03T07:03:53;19.00;99.90
13848;DHT22;6994;49.752;6.094;2022-09-03T07:06:20;19.10;99.90
13848;DHT22;6994;49.752;6.094;2022-09-03T07:08:48;19.20;99.90
13848;DHT22;6994;49.752;6.094;2022-09-03T07:11:17;19.70;99.90
13848;DHT22;6994;49.752;6.094;2022-09-03T07:13:45;19.90;99.90
13848;DHT22;6994;49.752;6.094;2022-09-03T07:16:13;19.90;99.90
13848;DHT22;6994;49.752;6.094;2022-09-03T07:18:38;20.10;99.90
13848;DHT22;6994;49.752;6.094;2022-09-03T07:21:06;20.30;99.90
13848;DHT22;6994;49.752;6.094;2022-09-03T07:23:33;20.50;99.90
13848;DHT22;6994;49.752;6.094;2022-09-03T07:26:01;20.50;99.90
13848;DHT22;6994;49.752;6.094;2022-09-03T07:28:27;20.90;99.90
13848;DHT22;6994;49.752;6.094;2022-09-03T07:30:59;21.00;99.90
13848;DHT22;6994;49.752;6.094;2022-09-03T07:33:22;21.00;99.90
13848;DHT22;6994;49.752;6.094;2022-09-03T07:35:50;21.00;99.90
13848;DHT22;6994;49.752;6.094;2022-09-03T07:38:18;21.00;99.90
13848;DHT22;6994;49.752;6.094;2022-09-03T07:40:46;21.00;99.90
13848;DHT22;6994;49.752;6.094;2022-09-03T07:43:14;20.90;99.90
13848;DHT22;6994;49.752;6.094;2022-09-03T07:45:48;20.90;99.90
13848;DHT22;6994;49.752;6.094;2022-09-03T07:48:10;20.70;99.90
13848;DHT22;6994;49.752;6.094;2022-09-03T07:50:37;20.70;99.90
13848;DHT22;6994;49.752;6.094;2022-09-03T07:53:05;20.60;99.90
13848;DHT22;6994;49.752;6.094;2022-09-03T07:55:32;20.30;99.90
13848;DHT22;6994;49.752;6.094;2022-09-03T07:57:59;20.10;99.90
13848;DHT22;6994;49.752;6.094;2022-09-03T08:00:26;19.70;99.90
13848;DHT22;6994;49.752;6.094;2022-09-03T08:02:53;19.30;99.90
13848;DHT22;6994;49.752;6.094;2022-09-03T08:05:21;19.00;99.90
13848;DHT22;6994;49.752;6.094;2022-09-03T08:07:48;18.70;99.90
13848;DHT22;6994;49.752;6.094;2022-09-03T08:10:15;18.50;99.90
13848;DHT22;6994;49.752;6.094;2022-09-03T08:12:43;18.30;99.90
13848;DHT22;6994;49.752;6.094;2022-09-03T08:15:11;18.30;99.90
13848;DHT22;6994;49.752;6.094;2022-09-03T08:17:42;18.30;99.90
13848;DHT22;6994;49.752;6.094;2022-09-03T08:20:07;18.20;99.90
13848;DHT22;6994;49.752;6.094;2022-09-03T08:22:35;18.20;99.90
13848;DHT22;6994;49.752;6.094;2022-09-03T08:25:03;18.20;99.90
13848;DHT22;6994;49.752;6.094;2022-09-03T08:27:30;18.20;99.90
13848;DHT22;6994;49.752;6.094;2022-09-03T08:29:57;18.20;99.90
13848;DHT22;6994;49.752;6.094;2022-09-03T08:32:24;18.20;99.90
13848;DHT22;6994;49.752;6.094;2022-09-03T08:34:52;18.30;99.90
13848;DHT22;6994;49.752;6.094;2022-09-03T08:37:19;18.40;99.90
13848;DHT22;6994;49.752;6.094;2022-09-03T08:39:46;18.50;99.90
13848;DHT22;6994;49.752;6.094;2022-09-03T08:42:24;18.60;99.90
13848;DHT22;6994;49.752;6.094;2022-09-03T08:44:55;18.60;99.90
13848;DHT22;6994;49.752;6.094;2022-09-03T08:50:30;18.90;99.90
13848;DHT22;6994;49.752;6.094;2022-09-03T08:55:42;19.40;99.90
13848;DHT22;6994;49.752;6.094;2022-09-03T08:58:15;19.30;99.90
13848;DHT22;6994;49.752;6.094;2022-09-03T09:01:09;19.40;99.90
13848;DHT22;6994;49.752;6.094;2022-09-03T09:03:45;19.50;99.90
13848;DHT22;6994;49.752;6.094;2022-09-03T09:06:19;19.60;99.90
13848;DHT22;6994;49.752;6.094;2022-09-03T09:09:16;19.80;99.90
13848;DHT22;6994;49.752;6.094;2022-09-03T09:14:26;19.90;99.90
13848;DHT22;6994;49.752;6.094;2022-09-03T09:22:37;20.30;99.90
13848;DHT22;6994;49.752;6.094;2022-09-03T09:24:27;20.50;99.90
13848;DHT22;6994;49.752;6.094;2022-09-03T09:27:09;20.50;99.90
13848;DHT22;6994;49.752;6.094;2022-09-03T09:29:21;20.60;99.90
13848;DHT22;6994;49.752;6.094;2022-09-03T09:31:48;20.60;99.90
13848;DHT22;6994;49.752;6.094;2022-09-03T09:34:16;20.60;99.90
13848;DHT22;6994;49.752;6.094;2022-09-03T09:36:53;20.60;99.90
13848;DHT22;6994;49.752;6.094;2022-09-03T09:39:19;20.70;99.90
13848;DHT22;6994;49.752;6.094;2022-09-03T09:42:00;20.80;99.90
13848;DHT22;6994;49.752;6.094;2022-09-03T09:44:26;20.80;99.90
13848;DHT22;6994;49.752;6.094;2022-09-03T09:47:15;21.00;99.90
13848;DHT22;6994;49.752;6.094;2022-09-03T09:52:16;21.10;99.90
13848;DHT22;6994;49.752;6.094;2022-09-03T09:54:41;21.20;99.90
13848;DHT22;6994;49.752;6.094;2022-09-03T09:57:12;21.40;99.90
13848;DHT22;6994;49.752;6.094;2022-09-03T09:59:34;21.60;99.90
13848;DHT22;6994;49.752;6.094;2022-09-03T10:02:11;21.90;99.90
13848;DHT22;6994;49.752;6.094;2022-09-03T10:04:37;22.20;99.90
13848;DHT22;6994;49.752;6.094;2022-09-03T10:07:30;22.50;99.90
13848;DHT22;6994;49.752;6.094;2022-09-03T10:10:00;22.70;99.90
13848;DHT22;6994;49.752;6.094;2022-09-03T10:17:31;23.30;99.90
13848;DHT22;6994;49.752;6.094;2022-09-03T10:22:55;23.10;99.90
13848;DHT22;6994;49.752;6.094;2022-09-03T10:25:21;23.10;99.90
13848;DHT22;6994;49.752;6.094;2022-09-03T10:27:49;23.10;99.90
13848;DHT22;6994;49.752;6.094;2022-09-03T10:30:15;23.10;99.90
13848;DHT22;6994;49.752;6.094;2022-09-03T10:33:11;23.20;99.90
13848;DHT22;6994;49.752;6.094;2022-09-03T10:35:39;23.30;99.90
13848;DHT22;6994;49.752;6.094;2022-09-03T10:40:41;23.60;99.90
13848;DHT22;6994;49.752;6.094;2022-09-03T10:43:39;23.80;99.90
13848;DHT22;6994;49.752;6.094;2022-09-03T10:46:16;23.90;99.90
13848;DHT22;6994;49.752;6.094;2022-09-03T10:51:25;23.90;99.90
13848;DHT22;6994;49.752;6.094;2022-09-03T10:54:00;23.80;99.90
13848;DHT22;6994;49.752;6.094;2022-09-03T10:56:23;23.70;99.90
13848;DHT22;6994;49.752;6.094;2022-09-03T11:06:47;25.40;99.90
13848;DHT22;6994;49.752;6.094;2022-09-03T11:09:14;25.50;99.90
13848;DHT22;6994;49.752;6.094;2022-09-03T11:11:41;26.00;99.90
13848;DHT22;6994;49.752;6.094;2022-09-03T11:14:08;25.90;99.90
13848;DHT22;6994;49.752;6.094;2022-09-03T11:16:38;25.90;99.90
13848;DHT22;6994;49.752;6.094;2022-09-03T11:19:16;25.80;99.90
13848;DHT22;6994;49.752;6.094;2022-09-03T11:21:31;26.00;99.90
13848;DHT22;6994;49.752;6.094;2022-09-03T11:26:31;25.70;99.90
13848;DHT22;6994;49.752;6.094;2022-09-03T11:32:08;26.90;99.90
13848;DHT22;6994;49.752;6.094;2022-09-03T11:34:46;28.10;99.90
13848;DHT22;6994;49.752;6.094;2022-09-03T11:37:27;28.10;99.90
13848;DHT22;6994;49.752;6.094;2022-09-03T11:40:10;28.00;99.90
13848;DHT22;6994;49.752;6.094;2022-09-03T11:42:40;27.70;99.60
13848;DHT22;6994;49.752;6.094;2022-09-03T11:47:45;26.90;99.90
13848;DHT22;6994;49.752;6.094;2022-09-03T11:50:17;26.60;99.90
13848;DHT22;6994;49.752;6.094;2022-09-03T11:52:42;26.60;99.90
13848;DHT22;6994;49.752;6.094;2022-09-03T11:55:10;26.50;99.90
13848;DHT22;6994;49.752;6.094;2022-09-03T11:57:40;26.40;99.90
13848;DHT22;6994;49.752;6.094;2022-09-03T12:00:08;26.20;99.90
13848;DHT22;6994;49.752;6.094;2022-09-03T12:02:34;25.90;99.90
13848;DHT22;6994;49.752;6.094;2022-09-03T12:07:59;25.60;99.90
13848;DHT22;6994;49.752;6.094;2022-09-03T12:18:48;28.40;99.90
13848;DHT22;6994;49.752;6.094;2022-09-03T12:21:16;29.30;97.80
13848;DHT22;6994;49.752;6.094;2022-09-03T12:23:45;29.20;97.60
13848;DHT22;6994;49.752;6.094;2022-09-03T12:26:12;29.20;97.60
13848;DHT22;6994;49.752;6.094;2022-09-03T12:28:44;28.40;96.40
13848;DHT22;6994;49.752;6.094;2022-09-03T12:31:16;27.70;97.90
13848;DHT22;6994;49.752;6.094;2022-09-03T12:33:53;27.60;97.90
13848;DHT22;6994;49.752;6.094;2022-09-03T12:36:16;26.50;99.70
13848;DHT22;6994;49.752;6.094;2022-09-03T12:38:43;25.20;99.90
13848;DHT22;6994;49.752;6.094;2022-09-03T12:41:20;24.00;99.90
13848;DHT22;6994;49.752;6.094;2022-09-03T12:43:53;23.00;99.90
13848;DHT22;6994;49.752;6.094;2022-09-03T12:46:23;22.10;99.90
13848;DHT22;6994;49.752;6.094;2022-09-03T12:48:56;21.40;99.90
13848;DHT22;6994;49.752;6.094;2022-09-03T12:51:23;20.30;99.90
13848;DHT22;6994;49.752;6.094;2022-09-03T12:53:50;20.20;99.90
13848;DHT22;6994;49.752;6.094;2022-09-03T12:56:18;19.50;99.90
13848;DHT22;6994;49.752;6.094;2022-09-03T12:59:03;19.50;99.90
13848;DHT22;6994;49.752;6.094;2022-09-03T13:01:29;19.10;99.90
13848;DHT22;6994;49.752;6.094;2022-09-03T13:04:04;19.10;99.90
13848;DHT22;6994;49.752;6.094;2022-09-03T13:06:33;18.90;99.90
13848;DHT22;6994;49.752;6.094;2022-09-03T13:09:00;18.80;99.90
13848;DHT22;6994;49.752;6.094;2022-09-03T13:11:26;19.00;99.90
13848;DHT22;6994;49.752;6.094;2022-09-03T13:14:00;19.00;99.90
13848;DHT22;6994;49.752;6.094;2022-09-03T13:16:47;19.00;99.90
13848;DHT22;6994;49.752;6.094;2022-09-03T13:19:34;18.90;99.90
13848;DHT22;6994;49.752;6.094;2022-09-03T13:27:28;18.90;99.90
13848;DHT22;6994;49.752;6.094;2022-09-03T13:29:58;19.00;99.90
13848;DHT22;6994;49.752;6.094;2022-09-03T13:32:25;19.00;99.90
13848;DHT22;6994;49.752;6.094;2022-09-03T13:35:01;19.10;99.90
13848;DHT22;6994;49.752;6.094;2022-09-03T13:39:57;20.20;99.90
13848;DHT22;6994;49.752;6.094;2022-09-03T13:42:32;20.90;99.90
13848;DHT22;6994;49.752;6.094;2022-09-03T13:45:20;21.70;99.90
13848;DHT22;6994;49.752;6.094;2022-09-03T13:47:47;22.30;99.90
13848;DHT22;6994;49.752;6.094;2022-09-03T13:50:10;23.00;99.90
13848;DHT22;6994;49.752;6.094;2022-09-03T13:53:13;24.20;99.90
13848;DHT22;6994;49.752;6.094;2022-09-03T13:55:41;25.20;99.90
13848;DHT22;6994;49.752;6.094;2022-09-03T13:58:26;27.30;99.90
13848;DHT22;6994;49.752;6.094;2022-09-03T14:03:44;29.10;99.90
13848;DHT22;6994;49.752;6.094;2022-09-03T14:07:16;29.80;99.90
13848;DHT22;6994;49.752;6.094;2022-09-03T14:09:01;29.70;99.90
13848;DHT22;6994;49.752;6.094;2022-09-03T14:13:58;29.20;99.90
13848;DHT22;6994;49.752;6.094;2022-09-03T14:19:37;28.80;99.90
13848;DHT22;6994;49.752;6.094;2022-09-03T14:22:24;28.80;99.90
13848;DHT22;6994;49.752;6.094;2022-09-03T14:25:00;28.80;99.90
13848;DHT22;6994;49.752;6.094;2022-09-03T14:27:30;29.10;99.90
13848;DHT22;6994;49.752;6.094;2022-09-03T14:29:59;29.40;99.90
13848;DHT22;6994;49.752;6.094;2022-09-03T14:40:29;29.40;98.00
13848;DHT22;6994;49.752;6.094;2022-09-03T14:48:39;28.70;97.50
13848;DHT22;6994;49.752;6.094;2022-09-03T14:59:49;28.00;98.70
13848;DHT22;6994;49.752;6.094;2022-09-03T15:04:54;27.60;95.90
13848;DHT22;6994;49.752;6.094;2022-09-03T15:12:37;27.10;97.60
13848;DHT22;6994;49.752;6.094;2022-09-03T15:15:12;26.90;98.30
13848;DHT22;6994;49.752;6.094;2022-09-03T15:17:59;26.60;97.30
13848;DHT22;6994;49.752;6.094;2022-09-03T15:30:56;25.90;98.00
13848;DHT22;6994;49.752;6.094;2022-09-03T15:33:28;25.80;97.80
13848;DHT22;6994;49.752;6.094;2022-09-03T15:39:08;25.60;97.70
13848;DHT22;6994;49.752;6.094;2022-09-03T15:41:27;25.50;98.80
13848;DHT22;6994;49.752;6.094;2022-09-03T15:43:50;25.40;98.90
13848;DHT22;6994;49.752;6.094;2022-09-03T15:49:18;25.40;99.30
13848;DHT22;6994;49.752;6.094;2022-09-03T15:54:20;25.20;99.20
13848;DHT22;6994;49.752;6.094;2022-09-03T15:56:53;25.40;99.60
13848;DHT22;6994;49.752;6.094;2022-09-03T16:02:08;25.60;99.10
13848;DHT22;6994;49.752;6.094;2022-09-03T16:10:12;25.20;99.90
13848;DHT22;6994;49.752;6.094;2022-09-03T16:12:48;25.10;99.90
13848;DHT22;6994;49.752;6.094;2022-09-03T16:15:35;25.10;99.90
13848;DHT22;6994;49.752;6.094;2022-09-03T16:18:07;25.00;99.90
13848;DHT22;6994;49.752;6.094;2022-09-03T16:21:20;24.80;99.90
13848;DHT22;6994;49.752;6.094;2022-09-03T16:23:09;24.80;99.90
13848;DHT22;6994;49.752;6.094;2022-09-03T16:25:41;24.80;99.90
13848;DHT22;6994;49.752;6.094;2022-09-03T16:28:12;24.80;99.90
13848;DHT22;6994;49.752;6.094;2022-09-03T16:30:51;24.70;99.90
13848;DHT22;6994;49.752;6.094;2022-09-03T16:36:05;24.60;99.90
13848;DHT22;6994;49.752;6.094;2022-09-03T16:38:33;24.50;99.90
13848;DHT22;6994;49.752;6.094;2022-09-03T16:42:06;24.50;99.90
13848;DHT22;6994;49.752;6.094;2022-09-03T16:43:52;24.50;99.90
13848;DHT22;6994;49.752;6.094;2022-09-03T16:46:24;24.50;99.90
13848;DHT22;6994;49.752;6.094;2022-09-03T16:49:12;24.60;99.90
13848;DHT22;6994;49.752;6.094;2022-09-03T16:54:19;24.60;99.90
13848;DHT22;6994;49.752;6.094;2022-09-03T16:56:48;24.60;99.90
13848;DHT22;6994;49.752;6.094;2022-09-03T17:02:37;24.30;99.90
13848;DHT22;6994;49.752;6.094;2022-09-03T17:16:28;23.80;99.90
13848;DHT22;6994;49.752;6.094;2022-09-03T17:21:25;23.50;99.90
13848;DHT22;6994;49.752;6.094;2022-09-03T17:35:11;23.20;99.90
13848;DHT22;6994;49.752;6.094;2022-09-03T17:40:27;22.90;99.90
13848;DHT22;6994;49.752;6.094;2022-09-03T17:51:26;23.00;99.90
13848;DHT22;6994;49.752;6.094;2022-09-03T17:53:59;22.90;99.90
13848;DHT22;6994;49.752;6.094;2022-09-03T17:56:29;23.00;99.90
13848;DHT22;6994;49.752;6.094;2022-09-03T17:59:01;22.90;99.90
13848;DHT22;6994;49.752;6.094;2022-09-03T18:01:25;23.20;99.90
13848;DHT22;6994;49.752;6.094;2022-09-03T18:03:58;23.20;99.90
13848;DHT22;6994;49.752;6.094;2022-09-03T18:09:23;23.10;99.90
13848;DHT22;6994;49.752;6.094;2022-09-03T18:11:50;23.20;99.90
13848;DHT22;6994;49.752;6.094;2022-09-03T18:14:27;23.10;99.90
13848;DHT22;6994;49.752;6.094;2022-09-03T18:17:26;23.00;99.90
13848;DHT22;6994;49.752;6.094;2022-09-03T18:20:08;22.90;99.90
13848;DHT22;6994;49.752;6.094;2022-09-03T18:23:19;23.00;99.90
13848;DHT22;6994;49.752;6.094;2022-09-03T18:26:04;23.10;99.90
13848;DHT22;6994;49.752;6.094;2022-09-03T18:28:49;23.10;99.90
13848;DHT22;6994;49.752;6.094;2022-09-03T18:31:33;23.10;99.90
13848;DHT22;6994;49.752;6.094;2022-09-03T18:34:19;23.10;99.90
13848;DHT22;6994;49.752;6.094;2022-09-03T18:37:03;23.10;99.90
13848;DHT22;6994;49.752;6.094;2022-09-03T18:39:48;23.00;99.90
13848;DHT22;6994;49.752;6.094;2022-09-03T18:42:50;23.00;99.90
13848;DHT22;6994;49.752;6.094;2022-09-03T18:45:42;22.80;99.90
13848;DHT22;6994;49.752;6.094;2022-09-03T18:48:43;22.60;99.90
13848;DHT22;6994;49.752;6.094;2022-09-03T18:51:26;22.40;99.90
13848;DHT22;6994;49.752;6.094;2022-09-03T18:57:05;22.00;99.90
13848;DHT22;6994;49.752;6.094;2022-09-03T19:00:06;21.90;99.90
13848;DHT22;6994;49.752;6.094;2022-09-03T19:08:36;21.30;99.90
13848;DHT22;6994;49.752;6.094;2022-09-03T19:11:28;21.30;99.90
13848;DHT22;6994;49.752;6.094;2022-09-03T19:14:24;21.20;99.90
13848;DHT22;6994;49.752;6.094;2022-09-03T19:17:10;21.30;99.90
13848;DHT22;6994;49.752;6.094;2022-09-03T19:22:58;21.00;99.90
13848;DHT22;6994;49.752;6.094;2022-09-03T19:25:44;20.70;99.90
13848;DHT22;6994;49.752;6.094;2022-09-03T19:28:29;20.50;99.90
13848;DHT22;6994;49.752;6.094;2022-09-03T19:34:12;20.40;99.90
13848;DHT22;6994;49.752;6.094;2022-09-03T19:37:11;20.20;99.90
13848;DHT22;6994;49.752;6.094;2022-09-03T19:40:24;20.00;99.90
13848;DHT22;6994;49.752;6.094;2022-09-03T19:43:11;19.90;99.90
13848;DHT22;6994;49.752;6.094;2022-09-03T19:46:07;19.80;99.90
13848;DHT22;6994;49.752;6.094;2022-09-03T19:52:13;19.60;99.90
13848;DHT22;6994;49.752;6.094;2022-09-03T19:54:56;19.50;99.90
13848;DHT22;6994;49.752;6.094;2022-09-03T19:57:41;19.50;99.90
13848;DHT22;6994;49.752;6.094;2022-09-03T20:00:26;19.80;99.90
13848;DHT22;6994;49.752;6.094;2022-09-03T20:03:12;19.80;99.90
13848;DHT22;6994;49.752;6.094;2022-09-03T20:05:56;19.80;99.90
13848;DHT22;6994;49.752;6.094;2022-09-03T20:08:42;19.80;99.90